sensor_id;sensor_type;location;lat;lon;timestamp;pressure;altitude;pressure_sealevel;temperature;humidity
12146;BME280;6136;47.032;15.398;2023-02-03T00:00:07;98397.78;;;1.19;100.00
12146;BME280;6136;47.032;15.398;2023-02-03T00:02:38;98400.53;;;1.08;100.00
12146;BME280;6136;47.032;15.398;2023-02-03T00:05:07;98391.94;;;1.00;100.00
12146;BME280;6136;47.032;15.398;2023-02-03T00:07:36;98381.63;;;0.88;100.00
12146;BME280;6136;47.032;15.398;2023-02-03T00:10:06;98388.63;;;0.85;100.00
12146;BME280;6136;47.032;15.398;2023-02-03T00:12:36;98380.81;;;0.82;100.00
12146;BME280;6136;47.032;15.398;2023-02-03T00:15:08;98390.44;;;0.75;100.00
12146;BME280;6136;47.032;15.398;2023-02-03T00:17:36;98383.53;;;0.71;100.00
12146;BME280;6136;47.032;15.398;2023-02-03T00:20:05;98383.53;;;0.71;100.00
12146;BME280;6136;47.032;15.398;2023-02-03T00:22:33;98380.94;;;0.71;100.00
12146;BME280;6136;47.032;15.398;2023-02-03T00:25:02;98375.78;;;0.63;100.00
12146;BME280;6136;47.032;15.398;2023-02-03T00:27:31;98383.63;;;0.62;100.00
12146;BME280;6136;47.032;15.398;2023-02-03T00:30:00;98388.84;;;0.62;100.00
12146;BME280;6136;47.032;15.398;2023-02-03T00:32:29;98390.59;;;0.60;100.00
12146;BME280;6136;47.032;15.398;2023-02-03T00:34:57;98391.53;;;0.56;100.00
12146;BME280;6136;47.032;15.398;2023-02-03T00:37:25;98394.13;;;0.54;100.00
12146;BME280;6136;47.032;15.398;2023-02-03T00:39:53;98400.28;;;0.50;100.00
12146;BME280;6136;47.032;15.398;2023-02-03T00:42:21;98404.56;;;0.56;100.00
12146;BME280;6136;47.032;15.398;2023-02-03T00:44:49;98389.84;;;0.47;100.00
12146;BME280;6136;47.032;15.398;2023-02-03T00:47:19;98396.88;;;0.42;100.00
12146;BME280;6136;47.032;15.398;2023-02-03T00:49:47;98400.34;;;0.41;100.00
12146;BME280;6136;47.032;15.398;2023-02-03T00:52:16;98386.50;;;0.31;100.00
12146;BME280;6136;47.032;15.398;2023-02-03T00:54:44;98403.84;;;0.38;100.00
12146;BME280;6136;47.032;15.398;2023-02-03T00:57:12;98391.66;;;0.42;100.00
12146;BME280;6136;47.032;15.398;2023-02-03T00:59:40;98397.66;;;0.49;100.00
12146;BME280;6136;47.032;15.398;2023-02-03T01:02:08;98394.25;;;0.41;100.00
12146;BME280;6136;47.032;15.398;2023-02-03T01:04:38;98401.28;;;0.35;100.00
12146;BME280;6136;47.032;15.398;2023-02-03T01:07:06;98396.13;;;0.29;100.00
12146;BME280;6136;47.032;15.398;2023-02-03T01:09:35;98389.13;;;0.31;100.00
12146;BME280;6136;47.032;15.398;2023-02-03T01:12:04;98394.34;;;0.31;100.00
12146;BME280;6136;47.032;15.398;2023-02-03T01:14:33;98387.44;;;0.27;100.00
12146;BME280;6136;47.032;15.398;2023-02-03T01:17:03;98394.34;;;0.30;100.00
12146;BME280;6136;47.032;15.398;2023-02-03T01:19:32;98380.47;;;0.28;100.00
12146;BME280;6136;47.032;15.398;2023-02-03T01:22:01;98372.63;;;0.31;100.00
12146;BME280;6136;47.032;15.398;2023-02-03T01:24:30;98377.88;;;0.28;100.00
12146;BME280;6136;47.032;15.398;2023-02-03T01:26:58;98364.03;;;0.20;100.00
12146;BME280;6136;47.032;15.398;2023-02-03T01:29:27;98366.66;;;0.18;100.00
12146;BME280;6136;47.032;15.398;2023-02-03T01:31:55;98373.66;;;0.13;100.00
12146;BME280;6136;47.032;15.398;2023-02-03T01:34:23;98358.03;;;0.10;100.00
12146;BME280;6136;47.032;15.398;2023-02-03T01:36:51;98359.78;;;0.08;100.00
12146;BME280;6136;47.032;15.398;2023-02-03T01:39:21;98356.28;;;0.12;100.00
12146;BME280;6136;47.032;15.398;2023-02-03T01:41:54;98353.69;;;0.09;100.00
12146;BME280;6136;47.032;15.398;2023-02-03T01:44:42;98348.53;;;0.06;100.00
12146;BME280;6136;47.032;15.398;2023-02-03T01:47:17;98352.75;;;0.16;100.00
12146;BME280;6136;47.032;15.398;2023-02-03T01:49:53;98333.69;;;0.14;100.00
12146;BME280;6136;47.032;15.398;2023-02-03T01:52:24;98338.91;;;0.14;100.00
12146;BME280;6136;47.032;15.398;2023-02-03T01:54:57;98354.47;;;0.20;100.00
12146;BME280;6136;47.032;15.398;2023-02-03T01:57:30;98340.59;;;0.18;100.00
12146;BME280;6136;47.032;15.398;2023-02-03T02:00:02;98336.25;;;0.20;100.00
12146;BME280;6136;47.032;15.398;2023-02-03T02:02:39;98337.06;;;0.25;100.00
12146;BME280;6136;47.032;15.398;2023-02-03T02:05:14;98350.97;;;0.23;100.00
12146;BME280;6136;47.032;15.398;2023-02-03T02:07:43;98334.50;;;0.21;100.00
12146;BME280;6136;47.032;15.398;2023-02-03T02:10:14;98327.50;;;0.24;100.00
12146;BME280;6136;47.032;15.398;2023-02-03T02:12:42;98334.38;;;0.30;100.00
12146;BME280;6136;47.032;15.398;2023-02-03T02:15:12;98332.63;;;0.32;100.00
12146;BME280;6136;47.032;15.398;2023-02-03T02:17:55;98332.69;;;0.27;100.00
12146;BME280;6136;47.032;15.398;2023-02-03T02:20:37;98324.81;;;0.33;100.00
12146;BME280;6136;47.032;15.398;2023-02-03T02:23:38;98325.69;;;0.31;100.00
12146;BME280;6136;47.032;15.398;2023-02-03T02:26:44;98337.00;;;0.31;100.00
12146;BME280;6136;47.032;15.398;2023-02-03T02:29:45;98326.53;;;0.34;100.00
12146;BME280;6136;47.032;15.398;2023-02-03T02:32:29;98331.75;;;0.36;100.00
12146;BME280;6136;47.032;15.398;2023-02-03T02:35:05;98333.50;;;0.32;100.00
12146;BME280;6136;47.032;15.398;2023-02-03T02:37:45;98330.94;;;0.29;100.00
12146;BME280;6136;47.032;15.398;2023-02-03T02:40:22;98326.63;;;0.25;100.00
12146;BME280;6136;47.032;15.398;2023-02-03T02:43:00;98331.84;;;0.22;100.00
12146;BME280;6136;47.032;15.398;2023-02-03T02:45:45;98323.16;;;0.23;100.00
12146;BME280;6136;47.032;15.398;2023-02-03T02:48:21;98320.63;;;0.17;100.00
12146;BME280;6136;47.032;15.398;2023-02-03T02:50:52;98325.88;;;0.13;100.00
12146;BME280;6136;47.032;15.398;2023-02-03T02:53:24;98322.47;;;0.03;100.00
12146;BME280;6136;47.032;15.398;2023-02-03T02:55:56;98312.97;;;-0.01;100.00
12146;BME280;6136;47.032;15.398;2023-02-03T02:58:26;98313.00;;;-0.07;100.00
12146;BME280;6136;47.032;15.398;2023-02-03T03:00:57;98310.41;;;-0.07;100.00
12146;BME280;6136;47.032;15.398;2023-02-03T03:03:26;98323.53;;;-0.19;100.00
12146;BME280;6136;47.032;15.398;2023-02-03T03:05:57;98307.91;;;-0.19;100.00
12146;BME280;6136;47.032;15.398;2023-02-03T03:08:35;98311.44;;;-0.26;100.00
12146;BME280;6136;47.032;15.398;2023-02-03T03:11:05;98308.00;;;-0.31;100.00
12146;BME280;6136;47.032;15.398;2023-02-03T03:13:38;98304.53;;;-0.30;100.00
12146;BME280;6136;47.032;15.398;2023-02-03T03:16:09;98311.53;;;-0.38;100.00
12146;BME280;6136;47.032;15.398;2023-02-03T03:18:42;98314.13;;;-0.40;100.00
12146;BME280;6136;47.032;15.398;2023-02-03T03:21:14;98308.06;;;-0.42;100.00
12146;BME280;6136;47.032;15.398;2023-02-03T03:23:45;98309.84;;;-0.46;100.00
12146;BME280;6136;47.032;15.398;2023-02-03T03:26:20;98313.31;;;-0.47;100.00
12146;BME280;6136;47.032;15.398;2023-02-03T03:28:52;98312.44;;;-0.49;100.00
12146;BME280;6136;47.032;15.398;2023-02-03T03:31:21;98299.47;;;-0.55;100.00
12146;BME280;6136;47.032;15.398;2023-02-03T03:33:51;98317.66;;;-0.52;100.00
12146;BME280;6136;47.032;15.398;2023-02-03T03:36:23;98309.81;;;-0.43;100.00
12146;BME280;6136;47.032;15.398;2023-02-03T03:38:57;98326.28;;;-0.39;100.00
12146;BME280;6136;47.032;15.398;2023-02-03T03:41:37;98342.69;;;-0.26;100.00
12146;BME280;6136;47.032;15.398;2023-02-03T03:44:11;98318.31;;;-0.16;100.00
12146;BME280;6136;47.032;15.398;2023-02-03T03:46:44;98317.50;;;-0.24;100.00
12146;BME280;6136;47.032;15.398;2023-02-03T03:49:18;98328.84;;;-0.31;100.00
12146;BME280;6136;47.032;15.398;2023-02-03T03:51:48;98335.78;;;-0.32;100.00
12146;BME280;6136;47.032;15.398;2023-02-03T03:54:20;98319.25;;;-0.26;100.00
12146;BME280;6136;47.032;15.398;2023-02-03T03:56:55;98330.53;;;-0.27;100.00
12146;BME280;6136;47.032;15.398;2023-02-03T03:59:27;98334.03;;;-0.31;100.00
12146;BME280;6136;47.032;15.398;2023-02-03T04:01:56;98327.97;;;-0.33;100.00
12146;BME280;6136;47.032;15.398;2023-02-03T04:04:33;98326.22;;;-0.31;100.00
12146;BME280;6136;47.032;15.398;2023-02-03T04:07:03;98322.72;;;-0.29;100.00
12146;BME280;6136;47.032;15.398;2023-02-03T04:09:31;98327.91;;;-0.24;100.00
12146;BME280;6136;47.032;15.398;2023-02-03T04:12:02;98320.16;;;-0.33;100.00
12146;BME280;6136;47.032;15.398;2023-02-03T04:14:33;98321.06;;;-0.37;100.00
12146;BME280;6136;47.032;15.398;2023-02-03T04:17:04;98313.25;;;-0.37;100.00
12146;BME280;6136;47.032;15.398;2023-02-03T04:19:34;98328.03;;;-0.41;100.00
12146;BME280;6136;47.032;15.398;2023-02-03T04:22:02;98322.81;;;-0.44;100.00
12146;BME280;6136;47.032;15.398;2023-02-03T04:24:30;98310.69;;;-0.44;100.00
12146;BME280;6136;47.032;15.398;2023-02-03T04:26:58;98318.53;;;-0.47;100.00
12146;BME280;6136;47.032;15.398;2023-02-03T04:29:26;98311.59;;;-0.46;100.00
12146;BME280;6136;47.032;15.398;2023-02-03T04:31:54;98315.06;;;-0.46;100.00
12146;BME280;6136;47.032;15.398;2023-02-03T04:34:22;98327.16;;;-0.42;100.00
12146;BME280;6136;47.032;15.398;2023-02-03T04:36:52;98312.41;;;-0.44;100.00
12146;BME280;6136;47.032;15.398;2023-02-03T04:39:20;98314.97;;;-0.36;100.00
12146;BME280;6136;47.032;15.398;2023-02-03T04:41:48;98318.41;;;-0.30;100.00
12146;BME280;6136;47.032;15.398;2023-02-03T04:44:16;98318.34;;;-0.22;100.00
12146;BME280;6136;47.032;15.398;2023-02-03T04:46:44;98307.84;;;-0.12;100.00
12146;BME280;6136;47.032;15.398;2023-02-03T04:49:12;98337.41;;;-0.17;100.00
12146;BME280;6136;47.032;15.398;2023-02-03T04:51:40;98320.09;;;-0.24;100.00
12146;BME280;6136;47.032;15.398;2023-02-03T04:54:11;98307.84;;;-0.13;100.00
12146;BME280;6136;47.032;15.398;2023-02-03T04:56:39;98324.34;;;-0.10;100.00
12146;BME280;6136;47.032;15.398;2023-02-03T04:59:07;98314.78;;;-0.09;100.00
12146;BME280;6136;47.032;15.398;2023-02-03T05:01:35;98299.94;;;-0.01;100.00
12146;BME280;6136;47.032;15.398;2023-02-03T05:04:03;98314.66;;;0.05;100.00
12146;BME280;6136;47.032;15.398;2023-02-03T05:06:32;98308.56;;;0.07;100.00
12146;BME280;6136;47.032;15.398;2023-02-03T05:09:01;98317.19;;;0.11;100.00
12146;BME280;6136;47.032;15.398;2023-02-03T05:11:30;98314.59;;;0.12;100.00
12146;BME280;6136;47.032;15.398;2023-02-03T05:13:58;98309.31;;;0.17;100.00
12146;BME280;6136;47.032;15.398;2023-02-03T05:16:27;98295.34;;;0.25;100.00
12146;BME280;6136;47.032;15.398;2023-02-03T05:18:55;98290.88;;;0.38;100.00
12146;BME280;6136;47.032;15.398;2023-02-03T05:21:23;98290.03;;;0.36;100.00
12146;BME280;6136;47.032;15.398;2023-02-03T05:23:51;98294.38;;;0.35;100.00
12146;BME280;6136;47.032;15.398;2023-02-03T05:26:19;98296.06;;;0.38;100.00
12146;BME280;6136;47.032;15.398;2023-02-03T05:28:49;98297.81;;;0.37;100.00
12146;BME280;6136;47.032;15.398;2023-02-03T05:31:19;98303.00;;;0.44;100.00
12146;BME280;6136;47.032;15.398;2023-02-03T05:33:47;98302.13;;;0.43;100.00
12146;BME280;6136;47.032;15.398;2023-02-03T05:36:15;98303.00;;;0.41;100.00
12146;BME280;6136;47.032;15.398;2023-02-03T05:38:43;98303.88;;;0.43;100.00
12146;BME280;6136;47.032;15.398;2023-02-03T05:41:12;98302.13;;;0.42;100.00
12146;BME280;6136;47.032;15.398;2023-02-03T05:43:59;98299.63;;;0.32;100.00
12146;BME280;6136;47.032;15.398;2023-02-03T05:46:27;98297.00;;;0.34;100.00
12146;BME280;6136;47.032;15.398;2023-02-03T05:48:55;98302.22;;;0.35;100.00
12146;BME280;6136;47.032;15.398;2023-02-03T05:51:23;98304.81;;;0.37;100.00
12146;BME280;6136;47.032;15.398;2023-02-03T05:53:51;98299.59;;;0.35;100.00
12146;BME280;6136;47.032;15.398;2023-02-03T05:56:19;98289.16;;;0.37;100.00
12146;BME280;6136;47.032;15.398;2023-02-03T05:58:47;98286.44;;;0.45;100.00
12146;BME280;6136;47.032;15.398;2023-02-03T06:01:20;98291.72;;;0.40;100.00
12146;BME280;6136;47.032;15.398;2023-02-03T06:03:48;98292.56;;;0.44;100.00
12146;BME280;6136;47.032;15.398;2023-02-03T06:06:17;98287.38;;;0.39;100.00
12146;BME280;6136;47.032;15.398;2023-02-03T06:08:45;98283.97;;;0.35;100.00
12146;BME280;6136;47.032;15.398;2023-02-03T06:11:13;98290.00;;;0.39;100.00
12146;BME280;6136;47.032;15.398;2023-02-03T06:13:41;98281.22;;;0.45;100.00
12146;BME280;6136;47.032;15.398;2023-02-03T06:16:09;98281.22;;;0.45;100.00
12146;BME280;6136;47.032;15.398;2023-02-03T06:18:39;98265.56;;;0.48;100.00
12146;BME280;6136;47.032;15.398;2023-02-03T06:21:07;98275.19;;;0.44;100.00
12146;BME280;6136;47.032;15.398;2023-02-03T06:23:35;98274.28;;;0.47;100.00
12146;BME280;6136;47.032;15.398;2023-02-03T06:26:03;98277.72;;;0.49;100.00
12146;BME280;6136;47.032;15.398;2023-02-03T06:28:32;98268.16;;;0.49;100.00
12146;BME280;6136;47.032;15.398;2023-02-03T06:31:00;98261.22;;;0.50;100.00
12146;BME280;6136;47.032;15.398;2023-02-03T06:33:28;98252.44;;;0.55;100.00
12146;BME280;6136;47.032;15.398;2023-02-03T06:35:58;98259.31;;;0.62;100.00
12146;BME280;6136;47.032;15.398;2023-02-03T06:38:26;98256.63;;;0.67;100.00
12146;BME280;6136;47.032;15.398;2023-02-03T06:40:54;98255.81;;;0.65;100.00
12146;BME280;6136;47.032;15.398;2023-02-03T06:43:22;98254.09;;;0.62;100.00
12146;BME280;6136;47.032;15.398;2023-02-03T06:45:50;98247.94;;;0.68;100.00
12146;BME280;6136;47.032;15.398;2023-02-03T06:48:19;98240.94;;;0.73;100.00
12146;BME280;6136;47.032;15.398;2023-02-03T06:50:47;98240.00;;;0.78;100.00
12146;BME280;6136;47.032;15.398;2023-02-03T06:53:16;98247.75;;;0.83;100.00
12146;BME280;6136;47.032;15.398;2023-02-03T06:55:45;98259.88;;;0.87;100.00
12146;BME280;6136;47.032;15.398;2023-02-03T06:58:13;98257.16;;;0.96;100.00
12146;BME280;6136;47.032;15.398;2023-02-03T07:00:42;98251.00;;;1.00;100.00
12146;BME280;6136;47.032;15.398;2023-02-03T07:03:10;98254.28;;;1.16;100.00
12146;BME280;6136;47.032;15.398;2023-02-03T07:05:38;98240.34;;;1.19;100.00
12146;BME280;6136;47.032;15.398;2023-02-03T07:08:06;98241.22;;;1.17;100.00
12146;BME280;6136;47.032;15.398;2023-02-03T07:10:36;98224.63;;;1.20;100.00
12146;BME280;6136;47.032;15.398;2023-02-03T07:13:04;98229.72;;;1.29;100.00
12146;BME280;6136;47.032;15.398;2023-02-03T07:15:33;98219.03;;;1.44;100.00
12146;BME280;6136;47.032;15.398;2023-02-03T07:18:01;98217.44;;;1.88;100.00
12146;BME280;6136;47.032;15.398;2023-02-03T07:20:29;98213.44;;;2.16;100.00
12146;BME280;6136;47.032;15.398;2023-02-03T07:22:58;98214.00;;;2.32;100.00
12146;BME280;6136;47.032;15.398;2023-02-03T07:25:26;98210.47;;;2.36;100.00
12146;BME280;6136;47.032;15.398;2023-02-03T07:27:56;98225.06;;;2.46;100.00
12146;BME280;6136;47.032;15.398;2023-02-03T07:30:24;98213.69;;;2.50;100.00
12146;BME280;6136;47.032;15.398;2023-02-03T07:32:53;98215.41;;;2.51;100.00
12146;BME280;6136;47.032;15.398;2023-02-03T07:35:21;98216.34;;;2.47;100.00
12146;BME280;6136;47.032;15.398;2023-02-03T07:37:49;98204.16;;;2.46;100.00
12146;BME280;6136;47.032;15.398;2023-02-03T07:40:18;98206.13;;;2.35;100.00
12146;BME280;6136;47.032;15.398;2023-02-03T07:42:47;98202.31;;;2.51;100.00
12146;BME280;6136;47.032;15.398;2023-02-03T07:45:17;98194.75;;;2.79;100.00
12146;BME280;6136;47.032;15.398;2023-02-03T07:47:47;98176.47;;;3.16;100.00
12146;BME280;6136;47.032;15.398;2023-02-03T07:50:16;98165.31;;;3.45;100.00
12146;BME280;6136;47.032;15.398;2023-02-03T07:52:44;98155.31;;;3.61;100.00
12146;BME280;6136;47.032;15.398;2023-02-03T07:55:12;98156.16;;;3.95;100.00
12146;BME280;6136;47.032;15.398;2023-02-03T07:57:40;98164.69;;;4.03;100.00
12146;BME280;6136;47.032;15.398;2023-02-03T08:00:11;98171.59;;;4.07;100.00
12146;BME280;6136;47.032;15.398;2023-02-03T08:02:41;98180.59;;;4.29;100.00
12146;BME280;6136;47.032;15.398;2023-02-03T08:05:10;98197.28;;;4.58;100.00
12146;BME280;6136;47.032;15.398;2023-02-03T08:07:39;98208.03;;;4.80;100.00
12146;BME280;6136;47.032;15.398;2023-02-03T08:10:09;98219.94;;;4.91;100.00
12146;BME280;6136;47.032;15.398;2023-02-03T08:12:37;98219.03;;;4.92;100.00
12146;BME280;6136;47.032;15.398;2023-02-03T08:15:06;98223.38;;;4.62;100.00
12146;BME280;6136;47.032;15.398;2023-02-03T08:17:35;98221.50;;;4.37;100.00
12146;BME280;6136;47.032;15.398;2023-02-03T08:20:08;98219.94;;;4.29;100.00
12146;BME280;6136;47.032;15.398;2023-02-03T08:22:36;98229.00;;;4.16;100.00
12146;BME280;6136;47.032;15.398;2023-02-03T08:25:05;98228.16;;;3.82;100.00
12146;BME280;6136;47.032;15.398;2023-02-03T08:27:33;98223.28;;;3.67;100.00
12146;BME280;6136;47.032;15.398;2023-02-03T08:30:02;98215.69;;;3.56;100.00
12146;BME280;6136;47.032;15.398;2023-02-03T08:32:31;98208.09;;;3.45;100.00
12146;BME280;6136;47.032;15.398;2023-02-03T08:35:00;98203.06;;;3.36;100.00
12146;BME280;6136;47.032;15.398;2023-02-03T08:37:29;98204.63;;;3.43;100.00
12146;BME280;6136;47.032;15.398;2023-02-03T08:39:58;98210.03;;;3.37;100.00
12146;BME280;6136;47.032;15.398;2023-02-03T08:42:27;98214.72;;;3.23;100.00
12146;BME280;6136;47.032;15.398;2023-02-03T08:44:55;98211.66;;;3.41;100.00
12146;BME280;6136;47.032;15.398;2023-02-03T08:47:23;98212.13;;;3.59;100.00
12146;BME280;6136;47.032;15.398;2023-02-03T08:49:52;98213.38;;;3.42;100.00
12146;BME280;6136;47.032;15.398;2023-02-03T08:52:20;98211.81;;;3.35;100.00
12146;BME280;6136;47.032;15.398;2023-02-03T08:54:50;98198.72;;;3.35;100.00
12146;BME280;6136;47.032;15.398;2023-02-03T08:57:18;98198.84;;;3.29;100.00
12146;BME280;6136;47.032;15.398;2023-02-03T08:59:46;98197.03;;;3.33;100.00
12146;BME280;6136;47.032;15.398;2023-02-03T09:02:16;98177.22;;;3.57;100.00
12146;BME280;6136;47.032;15.398;2023-02-03T09:04:45;98180.72;;;4.23;100.00
12146;BME280;6136;47.032;15.398;2023-02-03T09:07:15;98175.28;;;4.62;100.00
12146;BME280;6136;47.032;15.398;2023-02-03T09:09:43;98155.75;;;5.28;100.00
12146;BME280;6136;47.032;15.398;2023-02-03T09:12:13;98151.66;;;6.00;100.00
12146;BME280;6136;47.032;15.398;2023-02-03T09:14:41;98166.59;;;5.99;100.00
12146;BME280;6136;47.032;15.398;2023-02-03T09:17:09;98170.47;;;6.14;100.00
12146;BME280;6136;47.032;15.398;2023-02-03T09:19:37;98177.59;;;6.10;100.00
12146;BME280;6136;47.032;15.398;2023-02-03T09:22:06;98165.38;;;6.33;100.00
12146;BME280;6136;47.032;15.398;2023-02-03T09:24:34;98170.41;;;6.87;100.00
12146;BME280;6136;47.032;15.398;2023-02-03T09:27:02;98169.25;;;7.17;100.00
12146;BME280;6136;47.032;15.398;2023-02-03T09:29:32;98159.13;;;7.50;97.08
12146;BME280;6136;47.032;15.398;2023-02-03T09:32:00;98174.56;;;7.81;98.28
12146;BME280;6136;47.032;15.398;2023-02-03T09:34:32;98167.72;;;7.97;91.89
12146;BME280;6136;47.032;15.398;2023-02-03T09:37:01;98165.19;;;7.94;94.90
12146;BME280;6136;47.032;15.398;2023-02-03T09:39:30;98163.78;;;8.28;92.08
12146;BME280;6136;47.032;15.398;2023-02-03T09:42:09;98160.22;;;8.29;88.47
12146;BME280;6136;47.032;15.398;2023-02-03T09:44:52;98152.56;;;8.43;90.94
12146;BME280;6136;47.032;15.398;2023-02-03T09:47:28;98155.00;;;8.47;87.02
12146;BME280;6136;47.032;15.398;2023-02-03T09:50:00;98159.25;;;8.70;87.90
12146;BME280;6136;47.032;15.398;2023-02-03T09:52:31;98143.19;;;8.93;85.85
12146;BME280;6136;47.032;15.398;2023-02-03T09:55:03;98141.78;;;8.86;83.90
12146;BME280;6136;47.032;15.398;2023-02-03T09:57:38;98140.53;;;9.31;80.86
12146;BME280;6136;47.032;15.398;2023-02-03T10:00:15;98136.41;;;9.79;78.76
12146;BME280;6136;47.032;15.398;2023-02-03T10:02:54;98137.69;;;10.23;76.43
12146;BME280;6136;47.032;15.398;2023-02-03T10:05:30;98126.47;;;10.18;76.04
12146;BME280;6136;47.032;15.398;2023-02-03T10:08:06;98110.28;;;10.07;79.40
12146;BME280;6136;47.032;15.398;2023-02-03T10:10:41;98114.31;;;10.14;78.64
12146;BME280;6136;47.032;15.398;2023-02-03T10:13:23;98113.78;;;10.25;72.95
12146;BME280;6136;47.032;15.398;2023-02-03T10:16:06;98106.53;;;10.28;71.73
12146;BME280;6136;47.032;15.398;2023-02-03T10:18:41;98097.09;;;10.23;75.20
12146;BME280;6136;47.032;15.398;2023-02-03T10:21:15;98101.53;;;10.39;74.27
12146;BME280;6136;47.032;15.398;2023-02-03T10:23:47;98087.00;;;10.79;72.38
12146;BME280;6136;47.032;15.398;2023-02-03T10:26:19;98072.63;;;10.99;70.73
12146;BME280;6136;47.032;15.398;2023-02-03T10:28:53;98061.84;;;11.02;71.81
12146;BME280;6136;47.032;15.398;2023-02-03T10:31:25;98070.03;;;11.45;70.29
12146;BME280;6136;47.032;15.398;2023-02-03T10:33:58;98061.63;;;11.37;68.48
12146;BME280;6136;47.032;15.398;2023-02-03T10:36:38;98049.41;;;11.34;68.51
12146;BME280;6136;47.032;15.398;2023-02-03T10:39:18;98042.78;;;11.71;68.63
12146;BME280;6136;47.032;15.398;2023-02-03T10:41:49;98033.03;;;12.01;67.77
12146;BME280;6136;47.032;15.398;2023-02-03T10:44:18;98033.03;;;12.16;65.98
12146;BME280;6136;47.032;15.398;2023-02-03T10:46:47;98010.75;;;12.32;66.31
12146;BME280;6136;47.032;15.398;2023-02-03T10:49:16;98006.38;;;12.74;60.71
12146;BME280;6136;47.032;15.398;2023-02-03T10:51:48;97987.25;;;12.81;59.47
12146;BME280;6136;47.032;15.398;2023-02-03T10:54:27;97969.09;;;13.15;62.03
12146;BME280;6136;47.032;15.398;2023-02-03T10:57:01;97967.19;;;13.56;57.55
12146;BME280;6136;47.032;15.398;2023-02-03T10:59:33;97967.41;;;13.53;58.61
12146;BME280;6136;47.032;15.398;2023-02-03T11:02:08;97974.47;;;13.28;59.16
12146;BME280;6136;47.032;15.398;2023-02-03T11:04:36;97979.69;;;12.61;63.76
12146;BME280;6136;47.032;15.398;2023-02-03T11:07:06;97971.66;;;12.20;65.44
12146;BME280;6136;47.032;15.398;2023-02-03T11:09:50;97987.41;;;11.65;67.30
12146;BME280;6136;47.032;15.398;2023-02-03T11:12:19;97971.66;;;12.34;62.80
12146;BME280;6136;47.032;15.398;2023-02-03T11:14:48;97959.50;;;12.30;63.85
12146;BME280;6136;47.032;15.398;2023-02-03T11:17:20;97967.31;;;12.19;63.55
12146;BME280;6136;47.032;15.398;2023-02-03T11:19:50;97967.53;;;11.12;69.49
12146;BME280;6136;47.032;15.398;2023-02-03T11:22:27;97960.47;;;10.97;71.13
12146;BME280;6136;47.032;15.398;2023-02-03T11:24:57;97954.88;;;10.87;71.96
12146;BME280;6136;47.032;15.398;2023-02-03T11:27:28;97949.50;;;10.58;73.76
12146;BME280;6136;47.032;15.398;2023-02-03T11:30:09;97949.50;;;10.42;74.40
12146;BME280;6136;47.032;15.398;2023-02-03T11:32:41;97930.66;;;10.15;75.45
12146;BME280;6136;47.032;15.398;2023-02-03T11:35:15;97939.25;;;10.52;73.19
12146;BME280;6136;47.032;15.398;2023-02-03T11:37:45;97928.59;;;10.67;74.64
12146;BME280;6136;47.032;15.398;2023-02-03T11:40:25;97931.53;;;11.08;72.58
12146;BME280;6136;47.032;15.398;2023-02-03T11:43:03;97912.44;;;11.61;69.75
12146;BME280;6136;47.032;15.398;2023-02-03T11:45:37;97920.06;;;11.38;71.08
12146;BME280;6136;47.032;15.398;2023-02-03T11:48:21;97905.31;;;11.04;73.14
12146;BME280;6136;47.032;15.398;2023-02-03T11:50:59;97895.47;;;11.20;72.45
12146;BME280;6136;47.032;15.398;2023-02-03T11:53:36;97892.03;;;11.34;70.52
12146;BME280;6136;47.032;15.398;2023-02-03T11:56:31;97883.28;;;11.17;73.79
12146;BME280;6136;47.032;15.398;2023-02-03T11:59:26;97876.97;;;10.74;75.50
12146;BME280;6136;47.032;15.398;2023-02-03T12:02:20;97859.22;;;10.45;77.29
12146;BME280;6136;47.032;15.398;2023-02-03T12:05:05;97857.06;;;10.22;79.30
12146;BME280;6136;47.032;15.398;2023-02-03T12:07:50;97855.53;;;10.16;79.61
12146;BME280;6136;47.032;15.398;2023-02-03T12:10:36;97856.66;;;10.12;80.10
12146;BME280;6136;47.032;15.398;2023-02-03T12:13:21;97850.44;;;10.44;77.82
12146;BME280;6136;47.032;15.398;2023-02-03T12:16:02;97836.91;;;10.02;81.13
12146;BME280;6136;47.032;15.398;2023-02-03T12:18:43;97837.03;;;9.85;83.85
12146;BME280;6136;47.032;15.398;2023-02-03T12:21:30;97833.25;;;10.04;82.76
12146;BME280;6136;47.032;15.398;2023-02-03T12:24:06;97827.00;;;10.52;80.08
12146;BME280;6136;47.032;15.398;2023-02-03T12:26:46;97809.88;;;10.74;77.84
12146;BME280;6136;47.032;15.398;2023-02-03T12:29:20;97809.16;;;10.40;79.83
12146;BME280;6136;47.032;15.398;2023-02-03T12:31:56;97797.47;;;10.44;79.11
12146;BME280;6136;47.032;15.398;2023-02-03T12:34:31;97793.06;;;10.29;80.90
12146;BME280;6136;47.032;15.398;2023-02-03T12:37:05;97798.00;;;10.65;78.47
12146;BME280;6136;47.032;15.398;2023-02-03T12:39:39;97789.69;;;10.41;79.60
12146;BME280;6136;47.032;15.398;2023-02-03T12:42:15;97771.53;;;10.20;80.92
12146;BME280;6136;47.032;15.398;2023-02-03T12:44:47;97763.72;;;10.32;82.28
12146;BME280;6136;47.032;15.398;2023-02-03T12:47:24;97759.19;;;10.34;82.53
12146;BME280;6136;47.032;15.398;2023-02-03T12:49:58;97764.75;;;10.14;83.50
12146;BME280;6136;47.032;15.398;2023-02-03T12:52:32;97735.34;;;10.34;82.62
12146;BME280;6136;47.032;15.398;2023-02-03T12:55:17;97738.28;;;10.30;84.13
12146;BME280;6136;47.032;15.398;2023-02-03T12:57:50;97713.25;;;10.49;84.40
12146;BME280;6136;47.032;15.398;2023-02-03T13:00:37;97711.91;;;10.42;84.63
12146;BME280;6136;47.032;15.398;2023-02-03T13:03:20;97708.81;;;10.50;85.32
12146;BME280;6136;47.032;15.398;2023-02-03T13:05:55;97698.34;;;10.33;84.61
12146;BME280;6136;47.032;15.398;2023-02-03T13:08:31;97698.91;;;10.38;86.84
12146;BME280;6136;47.032;15.398;2023-02-03T13:11:10;97692.16;;;10.62;86.54
12146;BME280;6136;47.032;15.398;2023-02-03T13:13:44;97685.47;;;10.99;81.27
12146;BME280;6136;47.032;15.398;2023-02-03T13:16:16;97665.94;;;10.43;85.21
12146;BME280;6136;47.032;15.398;2023-02-03T13:18:51;97656.25;;;10.28;87.57
12146;BME280;6136;47.032;15.398;2023-02-03T13:21:20;97656.19;;;10.14;87.54
12146;BME280;6136;47.032;15.398;2023-02-03T13:23:50;97643.66;;;10.02;88.65